This is the latest recevied weather packets stored in our database for station/object KC0RKM-13. If no packets are shown the sender has not sent any weather packets the latest 10 day(s).
| Time | Temp. | Humidity | Pressure | Rain* | Wind** | Luminosity | Snow |
|---|---|---|---|---|---|---|---|
| 1787902803 | -17.78° C | 100% | 0 hPa | 0 mm | - | - | - |
| 1787902204 | -17.78° C | 100% | 0 hPa | 0 mm | - | - | - |
| 1787901604 | -17.78° C | 100% | 0 hPa | 0 mm | - | - | - |
| 1787901004 | -17.78° C | 100% | 0 hPa | 0 mm | - | - | - |
| 1787900404 | -17.78° C | 100% | 0 hPa | 0 mm | - | - | - |
| 1787899804 | -17.78° C | 100% | 0 hPa | 0 mm | - | - | - |
| 1787899203 | -17.78° C | 100% | 0 hPa | 0 mm | - | - | - |
| 1787898603 | -17.78° C | 100% | 0 hPa | 0 mm | - | - | - |
| 1787898003 | -17.78° C | 100% | 0 hPa | 0 mm | - | - | - |
| 1787897403 | -17.78° C | 100% | 0 hPa | 0 mm | - | - | - |
| 1787896812 | 20° C | 79% | 1019.9 hPa | 0 mm | - | - | - |
| 1787896203 | 20° C | 79% | 1019.9 hPa | 0 mm | - | - | - |
| 1787895604 | 20° C | 79% | 1019.9 hPa | 0 mm | - | - | - |
| 1787895004 | 20° C | 79% | 1019.7 hPa | 0 mm | - | - | - |
| 1787894412 | 20° C | 79% | 1019.7 hPa | 0 mm | - | - | - |
| 1787893804 | 20° C | 79% | 1019.7 hPa | 0 mm | - | - | - |
| 1787893204 | 20° C | 79% | 1019.4 hPa | 0 mm | - | - | - |
| 1787892604 | 20° C | 78% | 1019.6 hPa | 0 mm | - | - | - |
| 1787892004 | 20.56° C | 76% | 1019.6 hPa | 0 mm | - | - | - |
| 1787891404 | 20.56° C | 77% | 1019.6 hPa | 0 mm | - | - | - |
| 1787890804 | -17.78° C | 100% | 0 hPa | 0 mm | - | - | - |
| 1787890209 | -17.78° C | 100% | 0 hPa | 0 mm | - | - | - |
| 1787889604 | -17.78° C | 100% | 0 hPa | 0 mm | - | - | - |
| 1787889003 | 23.89° C | 63% | 1019.2 hPa | 0 mm | - | - | - |
| 1787888403 | 23.89° C | 63% | 1019 hPa | 0 mm | - | - | - |
* Rain latest hour (hover to see other rain measurements)
** Current wind speed in m/s (hover to see current wind gust speed)